createdAt,value
2023-03-11T00:01:47.293Z,11.13
2023-03-11T00:04:14.788Z,12.73
2023-03-11T00:06:41.985Z,10.00
2023-03-11T00:09:08.839Z,9.73
2023-03-11T00:11:35.747Z,5.53
2023-03-11T00:14:02.546Z,5.53
2023-03-11T00:16:29.461Z,7.73
2023-03-11T00:18:56.386Z,6.27
2023-03-11T00:21:23.232Z,6.20
2023-03-11T00:23:49.980Z,4.17
2023-03-11T00:26:16.913Z,5.20
2023-03-11T00:28:43.694Z,5.90
2023-03-11T00:31:12.290Z,7.23
2023-03-11T00:33:39.640Z,4.87
2023-03-11T00:36:07.220Z,4.07
2023-03-11T00:38:34.187Z,2.87
2023-03-11T00:41:02.218Z,4.63
2023-03-11T00:43:31.493Z,3.23
2023-03-11T00:45:58.449Z,4.40
2023-03-11T00:48:25.259Z,4.53
2023-03-11T00:50:52.140Z,3.53
2023-03-11T00:53:18.945Z,3.67
2023-03-11T00:55:45.842Z,1.67
2023-03-11T00:58:13.386Z,2.60
2023-03-11T01:00:47.422Z,2.47
2023-03-11T01:03:14.460Z,2.77
2023-03-11T01:05:41.280Z,1.80
2023-03-11T01:08:08.143Z,1.90
2023-03-11T01:10:35.699Z,1.40
2023-03-11T01:13:02.910Z,2.37
2023-03-11T01:15:31.162Z,2.40
2023-03-11T01:17:59.238Z,2.67
2023-03-11T01:20:26.123Z,1.30
2023-03-11T01:22:53.040Z,2.20
2023-03-11T01:25:20.964Z,1.40
2023-03-11T01:27:47.804Z,2.90
2023-03-11T01:30:16.172Z,2.00
2023-03-11T01:32:43.579Z,1.20
2023-03-11T01:35:12.892Z,2.10
2023-03-11T01:37:39.763Z,1.40
2023-03-11T01:40:07.418Z,2.30
2023-03-11T01:42:34.546Z,1.80
2023-03-11T01:45:01.744Z,2.80
2023-03-11T01:47:36.786Z,1.67
2023-03-11T01:50:05.425Z,4.00
2023-03-11T01:52:32.409Z,2.57
2023-03-11T01:54:59.279Z,3.20
2023-03-11T01:57:26.371Z,2.37
2023-03-11T01:59:55.373Z,2.57
2023-03-11T02:02:23.924Z,3.70
2023-03-11T02:04:51.389Z,3.10
2023-03-11T02:07:18.396Z,2.80
2023-03-11T02:09:46.454Z,2.63
2023-03-11T02:12:14.987Z,2.17
2023-03-11T02:14:47.174Z,2.37
2023-03-11T02:17:14.254Z,3.10
2023-03-11T02:19:54.158Z,2.37
2023-03-11T02:22:21.527Z,2.10
2023-03-11T02:24:51.889Z,2.87
2023-03-11T02:27:20.206Z,2.83
2023-03-11T02:29:51.702Z,2.43
2023-03-11T02:32:20.053Z,4.00
2023-03-11T02:34:46.988Z,6.27
2023-03-11T02:37:16.562Z,3.93
2023-03-11T02:39:50.748Z,1.97
2023-03-11T02:42:29.044Z,5.03
2023-03-11T02:44:59.995Z,3.63
2023-03-11T02:47:29.151Z,3.50
2023-03-11T02:49:56.640Z,3.77
2023-03-11T02:52:25.961Z,3.20
2023-03-11T02:54:54.916Z,3.73
2023-03-11T02:57:21.736Z,5.37
2023-03-11T02:59:48.585Z,4.07
2023-03-11T03:02:15.460Z,3.13
2023-03-11T03:04:42.342Z,3.63
2023-03-11T03:07:09.488Z,3.37
2023-03-11T03:09:37.327Z,5.30
2023-03-11T03:12:04.569Z,3.53
2023-03-11T03:14:33.819Z,4.37
2023-03-11T03:17:01.096Z,5.20
2023-03-11T03:19:28.166Z,4.37
2023-03-11T03:21:55.155Z,3.00
2023-03-11T03:24:23.575Z,4.47
2023-03-11T03:26:50.512Z,3.60
2023-03-11T03:29:17.307Z,5.90
2023-03-11T03:31:45.277Z,3.97
2023-03-11T03:34:12.815Z,3.40
2023-03-11T03:36:39.757Z,4.03
2023-03-11T03:39:07.443Z,5.60
2023-03-11T03:41:37.002Z,6.93
2023-03-11T03:44:04.981Z,5.60
2023-03-11T03:46:34.004Z,3.10
2023-03-11T03:49:00.903Z,3.40
2023-03-11T03:51:29.857Z,2.80
2023-03-11T03:54:05.457Z,3.73
2023-03-11T03:56:32.558Z,4.43
2023-03-11T03:59:00.893Z,7.13
2023-03-11T04:01:34.015Z,2.80
2023-03-11T04:04:01.123Z,3.10
2023-03-11T04:06:28.624Z,6.30
2023-03-11T04:09:03.037Z,4.17
2023-03-11T04:11:33.181Z,2.70
2023-03-11T04:14:02.756Z,3.07
2023-03-11T04:16:32.108Z,1.93
2023-03-11T04:19:06.736Z,2.07
2023-03-11T04:21:35.069Z,2.30
2023-03-11T04:24:02.600Z,1.47
2023-03-11T04:26:34.148Z,2.20
2023-03-11T04:29:02.153Z,3.77
2023-03-11T04:31:32.802Z,4.13
2023-03-11T04:34:03.629Z,4.37
2023-03-11T04:36:30.767Z,1.57
2023-03-11T04:38:58.303Z,1.80
2023-03-11T04:41:27.280Z,4.80
2023-03-11T04:43:54.394Z,1.00
2023-03-11T04:46:21.300Z,2.10
2023-03-11T04:48:48.696Z,0.83
2023-03-11T04:51:15.643Z,0.70
2023-03-11T04:53:42.670Z,1.90
2023-03-11T04:56:10.416Z,1.10
2023-03-11T04:58:38.731Z,0.40
2023-03-11T05:01:06.287Z,1.97
2023-03-11T05:03:33.174Z,1.87
2023-03-11T05:06:00.430Z,1.37
2023-03-11T05:08:27.387Z,0.50
2023-03-11T05:10:54.373Z,0.83
2023-03-11T05:13:22.766Z,1.00
2023-03-11T05:15:51.594Z,0.60
2023-03-11T05:18:18.645Z,1.10
2023-03-11T05:20:46.255Z,0.40
2023-03-11T05:23:14.291Z,0.80
2023-03-11T05:25:41.647Z,1.20
2023-03-11T05:28:09.369Z,0.60
2023-03-11T05:30:41.271Z,0.70
2023-03-11T05:33:09.026Z,0.70
2023-03-11T05:35:36.695Z,2.53
2023-03-11T05:38:03.920Z,1.00
2023-03-11T05:40:31.022Z,1.70
2023-03-11T05:42:57.863Z,0.73
2023-03-11T05:45:26.524Z,0.73
2023-03-11T05:47:55.171Z,0.90
2023-03-11T05:50:22.032Z,1.37
2023-03-11T05:52:50.407Z,1.70
2023-03-11T05:55:17.751Z,1.00
2023-03-11T05:57:47.504Z,0.80
2023-03-11T06:00:14.820Z,1.30
2023-03-11T06:02:45.603Z,1.13
2023-03-11T06:05:16.084Z,0.77
2023-03-11T06:07:44.734Z,1.37
2023-03-11T06:10:12.005Z,1.00
2023-03-11T06:12:39.890Z,1.40
2023-03-11T06:15:28.134Z,2.30
2023-03-11T06:17:55.347Z,1.20
2023-03-11T06:20:22.539Z,0.87
2023-03-11T06:22:50.424Z,3.20
2023-03-11T06:25:18.386Z,2.00
2023-03-11T06:27:50.956Z,2.27
2023-03-11T06:30:18.348Z,1.20
2023-03-11T06:32:55.324Z,0.60
2023-03-11T06:35:22.355Z,1.90
2023-03-11T06:37:49.136Z,2.63
2023-03-11T06:40:16.282Z,1.23
2023-03-11T06:42:43.264Z,1.30
2023-03-11T06:45:11.577Z,0.90
2023-03-11T06:47:41.060Z,1.90
2023-03-11T06:50:09.416Z,1.67
2023-03-11T06:52:36.727Z,0.90
2023-03-11T06:55:05.542Z,1.10
2023-03-11T06:57:33.007Z,2.27
2023-03-11T07:00:07.981Z,4.00
2023-03-11T07:02:36.041Z,1.20
2023-03-11T07:05:03.625Z,0.80
2023-03-11T07:07:31.351Z,1.37
2023-03-11T07:10:00.879Z,1.63
2023-03-11T07:12:27.741Z,1.23
2023-03-11T07:14:55.788Z,1.03
2023-03-11T07:17:23.016Z,1.50
2023-03-11T07:19:51.975Z,1.73
2023-03-11T07:22:19.036Z,2.30
2023-03-11T07:24:46.943Z,2.37
2023-03-11T07:27:13.822Z,1.73
2023-03-11T07:29:40.668Z,2.00
2023-03-11T07:32:07.953Z,2.40
2023-03-11T07:34:35.355Z,2.07
2023-03-11T07:37:02.167Z,1.87
2023-03-11T07:39:29.005Z,1.73
2023-03-11T07:41:55.987Z,2.10
2023-03-11T07:44:22.991Z,2.10
2023-03-11T07:46:49.817Z,2.63
2023-03-11T07:49:16.717Z,2.20
2023-03-11T07:51:44.128Z,2.53
2023-03-11T07:54:12.251Z,2.50
2023-03-11T07:56:39.348Z,2.53
2023-03-11T07:59:06.172Z,2.53
2023-03-11T08:01:41.817Z,2.80
2023-03-11T08:04:09.405Z,3.47
2023-03-11T08:06:37.006Z,4.27
2023-03-11T08:09:08.074Z,2.20
2023-03-11T08:11:35.717Z,6.67
2023-03-11T08:14:02.827Z,3.50
2023-03-11T08:16:29.755Z,2.60
2023-03-11T08:18:56.603Z,5.73
2023-03-11T08:21:27.462Z,2.53
2023-03-11T08:23:57.329Z,3.13
2023-03-11T08:26:24.223Z,2.50
2023-03-11T08:28:51.143Z,3.00
2023-03-11T08:31:19.699Z,3.77
2023-03-11T08:33:47.472Z,4.33
2023-03-11T08:36:14.507Z,4.40
2023-03-11T08:38:42.326Z,5.17
2023-03-11T08:41:09.323Z,12.67
2023-03-11T08:43:36.204Z,3.17
2023-03-11T08:46:04.511Z,12.57
2023-03-11T08:48:31.465Z,7.00
2023-03-11T08:50:58.676Z,7.57
2023-03-11T08:53:25.864Z,4.70
2023-03-11T08:55:53.361Z,8.20
2023-03-11T08:58:20.653Z,8.10
2023-03-11T09:00:47.493Z,5.03
2023-03-11T09:03:14.403Z,4.13
2023-03-11T09:05:41.548Z,5.00
2023-03-11T09:08:08.632Z,3.90
2023-03-11T09:10:35.506Z,4.67
2023-03-11T09:13:02.399Z,4.93
2023-03-11T09:15:29.172Z,3.87
2023-03-11T09:17:57.029Z,4.63
2023-03-11T09:20:23.956Z,5.53
2023-03-11T09:22:50.863Z,3.47
2023-03-11T09:25:17.662Z,4.50
2023-03-11T09:27:44.540Z,5.27
2023-03-11T09:30:11.649Z,5.43
2023-03-11T09:32:38.520Z,4.67
2023-03-11T09:35:05.547Z,4.50
2023-03-11T09:37:32.517Z,3.30
2023-03-11T09:39:59.324Z,10.07
2023-03-11T09:42:26.373Z,9.03
2023-03-11T09:44:59.286Z,14.93
2023-03-11T09:47:47.003Z,33.00
2023-03-11T09:50:35.411Z,15.07
2023-03-11T09:53:11.971Z,14.57
2023-03-11T09:55:44.682Z,6.10
2023-03-11T09:58:34.585Z,5.17
2023-03-11T10:01:01.698Z,10.53
2023-03-11T10:03:28.648Z,5.77
2023-03-11T10:05:58.694Z,5.43
2023-03-11T10:08:33.170Z,11.03
2023-03-11T10:11:14.075Z,12.23
2023-03-11T10:13:55.054Z,12.43
2023-03-11T10:16:40.444Z,15.97
2023-03-11T10:19:22.921Z,27.30
2023-03-11T10:21:55.826Z,23.47
2023-03-11T10:24:41.524Z,15.63
2023-03-11T10:27:21.621Z,56.47
2023-03-11T10:29:53.219Z,18.63
2023-03-11T10:32:23.230Z,9.70
2023-03-11T10:34:54.926Z,6.67
2023-03-11T10:37:33.189Z,11.47
2023-03-11T10:40:10.506Z,5.40
2023-03-11T10:42:37.902Z,7.73
2023-03-11T10:45:05.184Z,8.73
2023-03-11T10:47:32.058Z,7.60
2023-03-11T10:49:58.918Z,6.70
2023-03-11T10:52:25.710Z,10.17
2023-03-11T10:55:00.224Z,10.53
2023-03-11T10:57:28.589Z,9.07
2023-03-11T10:59:59.055Z,9.93
2023-03-11T11:02:30.492Z,9.10
2023-03-11T11:05:06.062Z,9.80
2023-03-11T11:07:34.904Z,5.97
2023-03-11T11:10:21.958Z,8.73
2023-03-11T11:13:07.655Z,5.53
2023-03-11T11:15:35.718Z,6.87
2023-03-11T11:18:03.910Z,6.77
2023-03-11T11:20:31.496Z,11.83
2023-03-11T11:23:01.097Z,8.83
2023-03-11T11:25:30.225Z,10.53
2023-03-11T11:27:58.651Z,8.87
2023-03-11T11:30:26.071Z,13.97
2023-03-11T11:32:54.200Z,7.53
2023-03-11T11:35:22.094Z,9.13
2023-03-11T11:37:50.299Z,7.30
2023-03-11T11:40:27.767Z,7.93
2023-03-11T11:43:01.670Z,7.97
2023-03-11T11:45:39.940Z,8.43
2023-03-11T11:48:19.873Z,8.57
2023-03-11T11:50:54.091Z,8.03
2023-03-11T11:53:25.281Z,8.43
2023-03-11T11:55:54.061Z,11.07
2023-03-11T11:58:23.936Z,9.87
2023-03-11T12:00:53.942Z,9.97
2023-03-11T12:03:39.490Z,17.00
2023-03-11T12:06:29.451Z,7.37
2023-03-11T12:09:00.760Z,8.53
2023-03-11T12:11:42.340Z,8.00
2023-03-11T12:14:27.825Z,9.17
2023-03-11T12:17:04.155Z,7.13
2023-03-11T12:19:34.185Z,8.37
2023-03-11T12:22:00.959Z,9.43
2023-03-11T12:24:27.763Z,10.50
2023-03-11T12:26:57.887Z,7.07
2023-03-11T12:29:26.952Z,16.57
2023-03-11T12:31:55.132Z,9.27
2023-03-11T12:34:22.665Z,15.80
2023-03-11T12:36:50.489Z,12.33
2023-03-11T12:39:43.791Z,9.30
2023-03-11T12:42:10.729Z,10.00
2023-03-11T12:44:38.518Z,9.57
2023-03-11T12:47:08.167Z,8.27
2023-03-11T12:49:36.488Z,9.70
2023-03-11T12:52:06.140Z,7.43
2023-03-11T12:54:35.882Z,7.53
2023-03-11T12:57:24.021Z,9.30
2023-03-11T13:00:08.009Z,11.50
2023-03-11T13:02:53.491Z,9.77
2023-03-11T13:05:38.622Z,8.97
2023-03-11T13:08:22.143Z,9.93
2023-03-11T13:10:50.066Z,6.10
2023-03-11T13:13:23.073Z,9.27
2023-03-11T13:15:50.250Z,8.03
2023-03-11T13:18:18.392Z,8.60
2023-03-11T13:20:49.429Z,9.00
2023-03-11T13:23:36.868Z,9.10
2023-03-11T13:26:03.774Z,10.30
2023-03-11T13:28:39.519Z,8.73
2023-03-11T13:31:21.524Z,8.83
2023-03-11T13:33:48.485Z,8.83
2023-03-11T13:36:22.721Z,10.00
2023-03-11T13:39:08.954Z,8.00
2023-03-11T13:41:37.010Z,11.40
2023-03-11T13:44:12.416Z,6.83
2023-03-11T13:46:40.639Z,12.43
2023-03-11T13:49:28.687Z,9.27
2023-03-11T13:51:57.156Z,12.50
2023-03-11T13:54:30.096Z,18.70
2023-03-11T13:56:58.276Z,8.97
2023-03-11T13:59:29.124Z,56.90
2023-03-11T14:02:13.394Z,8.17
2023-03-11T14:04:43.057Z,8.23
2023-03-11T14:07:14.607Z,14.47
2023-03-11T14:09:41.647Z,12.50
2023-03-11T14:12:08.771Z,9.20
2023-03-11T14:14:44.010Z,10.57
2023-03-11T14:17:14.711Z,10.60
2023-03-11T14:19:41.653Z,10.50
2023-03-11T14:22:09.796Z,10.23
2023-03-11T14:24:37.946Z,9.90
2023-03-11T14:27:09.186Z,12.63
2023-03-11T14:29:37.417Z,9.77
2023-03-11T14:32:23.114Z,13.00
2023-03-11T14:34:50.247Z,10.77
2023-03-11T14:37:25.762Z,7.93
2023-03-11T14:39:54.054Z,12.17
2023-03-11T14:42:26.971Z,11.77
2023-03-11T14:45:01.922Z,10.03
2023-03-11T14:47:34.030Z,12.90
2023-03-11T14:50:01.531Z,10.00
2023-03-11T14:52:47.522Z,16.33
2023-03-11T14:55:17.553Z,13.97
2023-03-11T14:57:50.607Z,23.73
2023-03-11T15:00:23.622Z,19.37
2023-03-11T15:03:00.448Z,12.00
2023-03-11T15:05:39.895Z,11.97
2023-03-11T15:08:07.642Z,9.87
2023-03-11T15:10:37.308Z,11.37
2023-03-11T15:13:06.156Z,12.60
2023-03-11T15:15:33.401Z,18.17
2023-03-11T15:18:01.203Z,12.00
2023-03-11T15:20:36.063Z,8.50
2023-03-11T15:23:04.780Z,11.17
2023-03-11T15:25:33.557Z,9.30
2023-03-11T15:28:13.602Z,9.63
2023-03-11T15:30:41.444Z,20.93
2023-03-11T15:33:21.452Z,14.93
2023-03-11T15:35:48.985Z,12.07
2023-03-11T15:38:27.869Z,18.87
2023-03-11T15:40:56.055Z,12.60
2023-03-11T15:43:25.787Z,16.00
2023-03-11T15:45:54.513Z,11.30
2023-03-11T15:48:21.838Z,10.80
2023-03-11T15:50:53.512Z,32.40
2023-03-11T15:53:21.433Z,11.40
2023-03-11T15:55:48.688Z,11.67
2023-03-11T15:58:17.047Z,31.43
2023-03-11T16:00:49.949Z,24.07
2023-03-11T16:03:18.173Z,8.00
2023-03-11T16:05:45.590Z,32.43
2023-03-11T16:08:12.874Z,26.47
2023-03-11T16:10:40.418Z,22.27
2023-03-11T16:13:09.791Z,21.53
2023-03-11T16:15:38.311Z,20.87
2023-03-11T16:18:06.560Z,14.50
2023-03-11T16:20:53.878Z,15.37
2023-03-11T16:23:22.645Z,25.43
2023-03-11T16:25:50.602Z,15.77
2023-03-11T16:28:17.593Z,17.13
2023-03-11T16:30:44.570Z,22.17
2023-03-11T16:33:11.506Z,16.43
2023-03-11T16:35:38.840Z,12.20
2023-03-11T16:38:07.271Z,15.83
2023-03-11T16:40:34.215Z,8.93
2023-03-11T16:43:04.904Z,9.03
2023-03-11T16:45:32.260Z,13.33
2023-03-11T16:47:59.178Z,14.73
2023-03-11T16:50:26.957Z,13.73
2023-03-11T16:52:54.230Z,16.17
2023-03-11T16:55:21.118Z,11.90
2023-03-11T16:57:48.012Z,13.67
2023-03-11T17:00:15.233Z,13.87
2023-03-11T17:02:42.217Z,17.30
2023-03-11T17:05:09.627Z,14.30
2023-03-11T17:07:39.293Z,12.30
2023-03-11T17:10:07.249Z,18.83
2023-03-11T17:12:34.046Z,14.67
2023-03-11T17:15:00.960Z,12.13
2023-03-11T17:17:27.896Z,13.83
2023-03-11T17:19:54.751Z,12.40
2023-03-11T17:22:21.579Z,13.13
2023-03-11T17:24:48.446Z,14.57
2023-03-11T17:27:15.263Z,22.77
2023-03-11T17:29:42.191Z,12.57
2023-03-11T17:32:09.104Z,14.17
2023-03-11T17:34:35.874Z,12.00
2023-03-11T17:37:03.113Z,13.47
2023-03-11T17:39:29.931Z,15.03
2023-03-11T17:41:56.832Z,10.37
2023-03-11T17:44:23.678Z,13.90
2023-03-11T17:46:50.653Z,10.00
2023-03-11T17:49:17.466Z,14.60
2023-03-11T17:51:44.960Z,19.33
2023-03-11T17:54:11.716Z,9.87
2023-03-11T17:56:38.522Z,12.33
2023-03-11T17:59:05.390Z,10.23
2023-03-11T18:01:32.234Z,8.33
2023-03-11T18:03:59.284Z,11.90
2023-03-11T18:06:26.202Z,8.30
2023-03-11T18:08:53.356Z,8.97
2023-03-11T18:11:21.795Z,10.07
2023-03-11T18:13:48.925Z,10.20
2023-03-11T18:16:17.337Z,11.07
2023-03-11T18:18:44.620Z,10.03
2023-03-11T18:21:13.451Z,14.43
2023-03-11T18:23:40.409Z,14.57
2023-03-11T18:26:08.235Z,11.93
2023-03-11T18:28:36.125Z,11.70
2023-03-11T18:31:10.091Z,11.80
2023-03-11T18:33:37.362Z,13.10
2023-03-11T18:36:18.652Z,10.80
2023-03-11T18:38:46.185Z,12.93
2023-03-11T18:41:14.012Z,10.80
2023-03-11T18:43:41.155Z,14.07
2023-03-11T18:46:09.136Z,12.90
2023-03-11T18:48:36.448Z,11.20
2023-03-11T18:51:03.386Z,16.63
2023-03-11T18:53:30.237Z,12.23
2023-03-11T18:56:01.120Z,14.33
2023-03-11T18:58:28.342Z,12.93
2023-03-11T19:00:55.562Z,15.87
2023-03-11T19:03:22.387Z,16.07
2023-03-11T19:05:50.869Z,13.67
2023-03-11T19:08:17.741Z,16.17
2023-03-11T19:10:44.625Z,15.57
2023-03-11T19:13:11.484Z,16.43
2023-03-11T19:15:39.124Z,16.57
2023-03-11T19:18:07.412Z,20.73
2023-03-11T19:20:35.195Z,28.00
2023-03-11T19:23:02.226Z,23.97
2023-03-11T19:25:29.464Z,24.10
2023-03-11T19:27:56.857Z,18.53
2023-03-11T19:30:24.527Z,13.67
2023-03-11T19:32:53.153Z,13.90
2023-03-11T19:35:21.461Z,15.03
2023-03-11T19:37:48.779Z,15.60
2023-03-11T19:40:16.099Z,16.27
2023-03-11T19:42:43.485Z,15.23
2023-03-11T19:45:11.141Z,13.83
2023-03-11T19:47:38.721Z,13.93
2023-03-11T19:50:05.830Z,17.23
2023-03-11T19:52:35.083Z,14.87
2023-03-11T19:55:02.578Z,13.17
2023-03-11T19:57:29.496Z,14.67
2023-03-11T19:59:56.732Z,14.53
2023-03-11T20:02:23.894Z,11.73
2023-03-11T20:04:50.757Z,12.57
2023-03-11T20:07:18.327Z,12.60
2023-03-11T20:09:45.347Z,14.73
2023-03-11T20:12:12.401Z,14.63
2023-03-11T20:14:40.456Z,11.40
2023-03-11T20:17:08.454Z,17.00
2023-03-11T20:19:36.601Z,13.23
2023-03-11T20:22:03.924Z,12.93
2023-03-11T20:24:31.256Z,9.60
2023-03-11T20:26:58.348Z,11.80
2023-03-11T20:29:25.596Z,9.10
2023-03-11T20:31:53.231Z,13.00
2023-03-11T20:34:20.458Z,10.40
2023-03-11T20:36:47.343Z,11.03
2023-03-11T20:39:14.266Z,10.67
2023-03-11T20:41:41.491Z,11.27
2023-03-11T20:44:09.708Z,8.90
2023-03-11T20:46:36.846Z,11.70
2023-03-11T20:49:04.879Z,10.63
2023-03-11T20:51:31.706Z,9.47
2023-03-11T20:53:58.853Z,11.17
2023-03-11T20:56:26.412Z,21.90
2023-03-11T20:58:55.955Z,28.67
2023-03-11T21:01:27.982Z,19.13
2023-03-11T21:03:56.220Z,14.70
2023-03-11T21:06:33.770Z,18.23
2023-03-11T21:09:01.990Z,14.43
2023-03-11T21:11:29.115Z,12.87
2023-03-11T21:13:56.233Z,15.20
2023-03-11T21:16:23.751Z,14.20
2023-03-11T21:18:50.994Z,10.57
2023-03-11T21:21:18.851Z,12.10
2023-03-11T21:23:48.005Z,13.33
2023-03-11T21:26:15.978Z,10.23
2023-03-11T21:28:47.174Z,11.20
2023-03-11T21:31:19.568Z,11.00
2023-03-11T21:33:46.872Z,11.73
2023-03-11T21:36:14.387Z,13.53
2023-03-11T21:38:41.794Z,12.00
2023-03-11T21:41:13.621Z,16.90
2023-03-11T21:43:42.272Z,10.53
2023-03-11T21:46:10.631Z,12.17
2023-03-11T21:48:37.687Z,15.20
2023-03-11T21:51:12.782Z,13.33
2023-03-11T21:53:40.345Z,12.93
2023-03-11T21:56:07.837Z,10.77
2023-03-11T21:58:35.017Z,13.87
2023-03-11T22:01:02.120Z,12.17
2023-03-11T22:03:30.860Z,12.27
2023-03-11T22:05:58.741Z,13.03
2023-03-11T22:08:26.675Z,13.67
2023-03-11T22:10:53.874Z,16.23
2023-03-11T22:13:21.923Z,11.37
2023-03-11T22:15:49.734Z,11.03
2023-03-11T22:18:17.460Z,10.23
2023-03-11T22:20:45.809Z,13.30
2023-03-11T22:23:13.326Z,14.40
2023-03-11T22:25:41.171Z,12.07
2023-03-11T22:28:12.563Z,16.27
2023-03-11T22:30:40.124Z,13.80
2023-03-11T22:33:07.651Z,15.00
2023-03-11T22:35:34.649Z,16.57
2023-03-11T22:38:01.573Z,13.30
2023-03-11T22:40:28.752Z,14.30
2023-03-11T22:42:55.610Z,13.73
2023-03-11T22:45:23.136Z,16.30
2023-03-11T22:47:51.189Z,16.00
2023-03-11T22:50:19.095Z,13.20
2023-03-11T22:52:46.571Z,14.80
2023-03-11T22:55:13.914Z,13.90
2023-03-11T22:57:40.797Z,16.07
2023-03-11T23:00:17.509Z,15.90
2023-03-11T23:02:45.290Z,16.40
2023-03-11T23:05:13.065Z,16.70
2023-03-11T23:07:41.080Z,13.20
2023-03-11T23:10:09.237Z,15.33
2023-03-11T23:12:36.843Z,12.83
2023-03-11T23:15:05.453Z,17.10
2023-03-11T23:17:33.170Z,16.80
2023-03-11T23:20:00.803Z,17.87
2023-03-11T23:22:27.724Z,16.33
2023-03-11T23:24:54.858Z,18.40
2023-03-11T23:27:22.988Z,17.77
2023-03-11T23:29:50.822Z,20.00
2023-03-11T23:32:17.957Z,18.47
2023-03-11T23:34:46.705Z,19.03
2023-03-11T23:37:14.493Z,14.93
2023-03-11T23:39:41.568Z,18.50
2023-03-11T23:42:24.116Z,15.43
2023-03-11T23:44:52.175Z,17.77
2023-03-11T23:47:19.101Z,15.20
2023-03-11T23:49:46.610Z,18.83
2023-03-11T23:52:13.658Z,15.17
2023-03-11T23:54:40.490Z,15.13
2023-03-11T23:57:08.087Z,17.67
2023-03-11T23:59:35.511Z,17.93
